WetterOnline ( https://www.wetteronline.at )

Wetter aktuell Schleiz

Aktuelles Wetter: Schleiz (502m)

6-stündlich | Neueste Meldungen
Ortszeit Temperatur Wetter
Mi, 05.08. 14:00 22.8° C fast wolkenlos
Mi, 05.08. 8:00 14.9° C wolkenlos
Mi, 05.08. 2:00 11.7° C fast wolkenlos
Di, 04.08. 20:00 18.2° C fast wolkenlos
Di, 04.08. 14:00 17.3° C bewölkt
Di, 04.08. 8:00 12.6° C bewölkt
Di, 04.08. 2:00 13.4° C bedeckt
Mo, 03.08. 20:00 17.4° C wolkig
Ortszeit Temperatur Wetter
Mi, 05.08. 14:00 22.8° C fast wolkenlos
Mi, 05.08. 13:50 22.8° C fast wolkenlos
Mi, 05.08. 13:40 22.7° C leicht bewölkt
Mi, 05.08. 13:30 22.1° C leicht bewölkt
Mi, 05.08. 13:20 22.1° C leicht bewölkt
Mi, 05.08. 13:10 22.5° C fast wolkenlos
Mi, 05.08. 13:00 22.3° C fast wolkenlos
Mi, 05.08. 12:30 21.5° C fast wolkenlos
Mi, 05.08. 12:00 21.8° C wolkenlos
Mi, 05.08. 11:30 21.1° C wolkenlos
Mi, 05.08. 11:00 20.6° C wolkenlos
Mi, 05.08. 10:30 20.6° C wolkenlos
Ortszeit Relative Feuchte Sichtweite
Mi, 05.08. 14:00 35% 50 km
Mi, 05.08. 8:00 73% 40 km
Mi, 05.08. 2:00 86% 60 km
Di, 04.08. 20:00 51% 60 km
Di, 04.08. 14:00 55% 50 km
Di, 04.08. 8:00 81% 55 km
Di, 04.08. 2:00 73% 50 km
Mo, 03.08. 20:00 56% 45 km
Ortszeit Relative Feuchte Sichtweite
Mi, 05.08. 14:00 35% 50 km
Mi, 05.08. 13:50 35% -
Mi, 05.08. 13:40 35% -
Mi, 05.08. 13:30 36% 60 km
Mi, 05.08. 13:20 36% -
Mi, 05.08. 13:10 35% -
Mi, 05.08. 13:00 36% 13 km
Mi, 05.08. 12:30 38% 60 km
Mi, 05.08. 12:00 36% 60 km
Mi, 05.08. 11:30 38% >70 km
Mi, 05.08. 11:00 42% >70 km
Mi, 05.08. 10:30 46% 60 km
Ortszeit Niederschlagsmenge Niederschlagsart
Mi, 05.08. 14:00 0.0 l/m2 in 6 Std. -
Mi, 05.08. 8:00 0.0 l/m2 in 12 Std. -
Mi, 05.08. 2:00 0.1 l/m2 in 6 Std. -
Di, 04.08. 20:00 0.0 l/m2 in 12 Std. -
Di, 04.08. 14:00 0.0 l/m2 in 6 Std. -
Di, 04.08. 8:00 0.0 l/m2 in 12 Std. -
Di, 04.08. 2:00 0.1 l/m2 in 6 Std. -
Mo, 03.08. 20:00 0.0 l/m2 in 12 Std. -
Ortszeit Niederschlagsmenge Niederschlagsart
Mi, 05.08. 14:00 0.0 l/m2 in 1 Std. -
Mi, 05.08. 13:50 keine Meldung -
Mi, 05.08. 13:40 keine Meldung -
Mi, 05.08. 13:30 0.0 l/m2 in 1 Std. -
Mi, 05.08. 13:20 keine Meldung -
Mi, 05.08. 13:10 keine Meldung -
Mi, 05.08. 13:00 0.0 l/m2 in 1 Std. -
Mi, 05.08. 12:30 0.0 l/m2 in 1 Std. -
Mi, 05.08. 12:00 0.0 l/m2 in 1 Std. -
Mi, 05.08. 11:30 0.0 l/m2 in 1 Std. -
Mi, 05.08. 11:00 0.0 l/m2 in 1 Std. -
Mi, 05.08. 10:30 0.0 l/m2 in 1 Std. -
Ortszeit Stärke Spitze Richtung
km/h Bft. km/h Grad Sektor
Mi, 05.08. 14:00 7 2 22 200° S
Mi, 05.08. 8:00 11 2 18 170° S
Mi, 05.08. 2:00 9 2 13 190° S
Di, 04.08. 20:00 11 2 29 330° NW
Di, 04.08. 14:00 9 2 30 20° N
Di, 04.08. 8:00 7 2 22 340° N
Di, 04.08. 2:00 6 1 24 20° N
Mo, 03.08. 20:00 14 3 32 10° N
Ortszeit Stärke Spitze Richtung
km/h Bft. km/h Grad Sektor
Mi, 05.08. 14:00 7 2 14 200° S
Mi, 05.08. 13:50 7 2 - 200° S
Mi, 05.08. 13:40 7 2 - 170° S
Mi, 05.08. 13:30 7 2 14 180° S
Mi, 05.08. 13:20 7 2 - 180° S
Mi, 05.08. 13:10 7 2 - 170° S
Mi, 05.08. 13:00 7 2 18 180° S
Mi, 05.08. 12:30 7 2 18 220° SW
Mi, 05.08. 12:00 7 2 22 170° S
Mi, 05.08. 11:30 9 2 17 120° SO
Mi, 05.08. 11:00 7 2 18 190° S
Mi, 05.08. 10:30 11 2 18 240° SW
Ortszeit Untergrenze Bedeckung Gattung
total tief tief mittel hoch
Mi, 05.08. 14:00 10500 m 1/8 0/8 - - -
Mi, 05.08. 8:00 - 0/8 0/8 - - -
Mi, 05.08. 2:00 10500 m 1/8 0/8 - - -
Di, 04.08. 20:00 1500 m 1/8 1/8 - - -
Di, 04.08. 14:00 1050 m 7/8 7/8 - - -
Di, 04.08. 8:00 2700 m 7/8 7/8 - - -
Di, 04.08. 2:00 4200 m 8/8 8/8 - - -
Mo, 03.08. 20:00 1320 m 8/8 1/8 - - -
Ortszeit Bedeckungsgrad in Achtel und Wolkenuntergrenze
Mi, 05.08. 14:00 1(10500m)
Mi, 05.08. 13:50 1(10500m)
Mi, 05.08. 13:40 2(9000m) 3(10500m)
Mi, 05.08. 13:30 3(9000m) 3(10500m)
Mi, 05.08. 13:20 3(9000m)
Mi, 05.08. 13:10 1(9000m)
Mi, 05.08. 13:00 1(9000m)
Mi, 05.08. 12:30 1(9000m) 3(10500m)
Mi, 05.08. 12:00 keine Wolken
Mi, 05.08. 11:30 keine Wolken
Mi, 05.08. 11:00 keine Wolken
Mi, 05.08. 10:30 keine Wolken
Ortszeit Luftdruck NN (hPa) Tendenz (hPa in 3 Std.)
Mi, 05.08. 14:00 1018 - 0,2
Mi, 05.08. 8:00 1020 + 0,9
Mi, 05.08. 2:00 1019 + 0,1
Di, 04.08. 20:00 1016 + 0,9
Di, 04.08. 14:00 1015 + 0,8
Di, 04.08. 8:00 1013 + 1,4
Di, 04.08. 2:00 1011 - 0,1
Mo, 03.08. 20:00 1010 - 0,6
Ortszeit Luftdruck NN (hPa) Tendenz (hPa in 3 Std.)
Mi, 05.08. 14:00 1018 - 0,2
Mi, 05.08. 13:50 1018 keine Meldung
Mi, 05.08. 13:40 1018 keine Meldung
Mi, 05.08. 13:30 1018 - 0,1
Mi, 05.08. 13:20 1018 keine Meldung
Mi, 05.08. 13:10 1018 keine Meldung
Mi, 05.08. 13:00 1018 - 0,1
Mi, 05.08. 12:30 1018 - 0,2
Mi, 05.08. 12:00 1018 - 0,2
Mi, 05.08. 11:30 1019 - 0,1
Mi, 05.08. 11:00 1019 - 0,2
Mi, 05.08. 10:30 1019 0,0
Ortszeit Schneehöhe (cm)
Mi, 05.08. 14:00 -
Mi, 05.08. 8:00 -
Mi, 05.08. 2:00 -
Di, 04.08. 20:00 -
Di, 04.08. 14:00 -
Di, 04.08. 8:00 -
Di, 04.08. 2:00 -
Mo, 03.08. 20:00 -
Ortszeit Schneehöhe (cm)
Mi, 05.08. 14:00 -
Mi, 05.08. 13:50 -
Mi, 05.08. 13:40 -
Mi, 05.08. 13:30 -
Mi, 05.08. 13:20 -
Mi, 05.08. 13:10 -
Mi, 05.08. 13:00 -
Mi, 05.08. 12:30 -
Mi, 05.08. 12:00 -
Mi, 05.08. 11:30 -
Mi, 05.08. 11:00 -
Mi, 05.08. 10:30 -
Link zu dieser Seite / Seite empfehlen

Das Wetter in ...